Time;durP1;ratioP1;P1;durP2;ratioP2;P2;SDS_P1;SDS_P2;PMS_P1;PMS_P2;Temp;Humidity;BMP_temperature;BMP_pressure;BME280_temperature;BME280_humidity;BME280_pressure;Samples;Min_cycle;Max_cycle;Signal;HPM_P1;HPM_P2
2022/12/07 12:24:22;;;;;;;8.67;3.23;;;;;;;5.55;100.00;101553.34;5336958;27;20358;-69
2022/12/07 12:27:03;;;;;;;10.23;2.70;;;;;;;5.60;100.00;101549.78;5335553;27;20024;-70
2022/12/07 12:29:41;;;;;;;10.87;2.47;;;;;;;5.60;100.00;101545.44;5336847;27;20437;-67
2022/12/07 12:32:12;;;;;;;9.70;2.30;;;;;;;5.61;100.00;101541.06;5335484;27;20027;-70
2022/12/07 12:34:46;;;;;;;12.73;2.03;;;;;;;5.75;100.00;101543.28;5335971;27;20034;-72
2022/12/07 12:37:32;;;;;;;9.82;2.92;;;;;;;5.86;100.00;101535.19;5336232;28;20381;-69
2022/12/07 12:40:15;;;;;;;8.97;2.90;;;;;;;5.91;100.00;101526.38;5335051;27;20034;-71
2022/12/07 12:42:52;;;;;;;8.53;1.90;;;;;;;5.96;100.00;101534.03;5335240;27;20023;-71
2022/12/07 12:45:31;;;;;;;7.47;2.40;;;;;;;5.96;100.00;101530.56;5316152;27;20454;-71
2022/12/07 12:48:04;;;;;;;7.20;2.30;;;;;;;5.97;100.00;101527.91;5326141;28;20418;-73
2022/12/07 12:50:37;;;;;;;9.07;2.40;;;;;;;6.04;100.00;101523.38;5315615;28;20016;-72
2022/12/07 12:53:26;;;;;;;9.17;2.90;;;;;;;6.01;100.00;101513.06;5314056;28;20019;-70
2022/12/07 12:56:19;;;;;;;10.13;2.23;;;;;;;6.05;100.00;101520.78;5329936;28;20062;-71
2022/12/07 12:59:23;;;;;;;7.90;2.17;;;;;;;6.02;100.00;101513.03;5331805;27;20035;-75
2022/12/07 13:02:07;;;;;;;11.13;2.07;;;;;;;5.97;100.00;101511.47;5321954;28;20111;-72
2022/12/07 13:04:50;;;;;;;9.53;2.10;;;;;;;6.02;100.00;101502.63;5319765;28;20063;-73
2022/12/07 13:07:46;;;;;;;7.97;1.70;;;;;;;6.01;100.00;101506.13;5327992;28;20023;-72
2022/12/07 13:10:24;;;;;;;4.90;1.43;;;;;;;6.00;100.00;101503.59;5334498;28;20070;-70
2022/12/07 13:13:17;;;;;;;4.97;1.70;;;;;;;5.95;100.00;101497.66;5334238;27;20610;-70
2022/12/07 13:15:55;;;;;;;8.90;2.37;;;;;;;5.90;100.00;101501.25;5318138;28;20378;-69
2022/12/07 13:18:29;;;;;;;6.17;2.30;;;;;;;5.94;100.00;101502.00;5334136;27;20115;-69
2022/12/07 13:21:01;;;;;;;7.25;2.10;;;;;;;5.93;100.00;101495.13;5334680;27;20410;-69
2022/12/07 13:23:44;;;;;;;5.83;2.00;;;;;;;5.92;100.00;101488.19;5334437;27;20540;-70
2022/12/07 13:26:42;;;;;;;6.53;1.70;;;;;;;5.86;100.00;101488.38;5324992;28;20493;-69
2022/12/07 13:29:23;;;;;;;7.93;2.00;;;;;;;5.83;100.00;101494.50;5332447;27;20066;-69
2022/12/07 13:31:56;;;;;;;6.13;2.43;;;;;;;5.86;100.00;101483.19;5317866;28;20099;-70
2022/12/07 13:34:34;;;;;;;6.50;1.93;;;;;;;5.97;100.00;101486.31;5315974;28;20500;-70
2022/12/07 13:37:24;;;;;;;7.53;2.53;;;;;;;6.02;100.00;101488.78;5313237;28;20305;-71
2022/12/07 13:39:59;;;;;;;6.57;2.10;;;;;;;6.01;100.00;101477.53;5315252;28;20031;-74
2022/12/07 13:42:33;;;;;;;7.07;2.05;;;;;;;6.07;100.00;101475.66;5319192;28;20106;-73
2022/12/07 13:48:36;;;;;;;5.83;2.60;;;;;;;5.95;100.00;101451.72;5316436;28;20028;-73
2022/12/07 13:51:26;;;;;;;10.13;2.43;;;;;;;5.99;100.00;101468.91;5316913;28;20522;-73
2022/12/07 13:54:09;;;;;;;5.23;2.23;;;;;;;5.97;100.00;101462.91;5313144;28;20489;-68
2022/12/07 13:56:41;;;;;;;9.40;2.00;;;;;;;5.88;100.00;101450.22;5311506;28;20360;-72
2022/12/07 13:59:17;;;;;;;6.43;1.40;;;;;;;5.86;100.00;101450.25;5309079;28;20030;-71
2022/12/07 14:01:50;;;;;;;7.33;1.83;;;;;;;5.94;100.00;101465.59;5318153;28;20087;-71
2022/12/07 14:04:32;;;;;;;3.97;1.50;;;;;;;5.86;100.00;101462.41;5315777;28;20110;-76
2022/12/07 14:07:26;;;;;;;6.57;1.77;;;;;;;5.96;100.00;101460.34;5311482;28;20024;-75
2022/12/07 14:10:03;;;;;;;5.80;1.97;;;;;;;5.91;100.00;101458.78;5308844;28;20028;-70
2022/12/07 14:12:36;;;;;;;4.27;1.57;;;;;;;5.91;100.00;101452.72;5308172;28;20119;-71
2022/12/07 14:15:21;;;;;;;4.37;1.30;;;;;;;5.89;100.00;101452.75;5310047;28;20031;-75
2022/12/07 14:17:54;;;;;;;4.57;2.10;;;;;;;5.86;100.00;101457.19;5311230;28;20273;-78
2022/12/07 14:20:29;;;;;;;4.77;1.80;;;;;;;5.85;100.00;101442.50;5313143;28;20200;-74
2022/12/07 14:23:08;;;;;;;8.13;2.00;;;;;;;5.85;100.00;101437.31;5309722;28;20313;-73
2022/12/07 14:25:49;;;;;;;6.00;1.83;;;;;;;5.91;100.00;101440.56;5312134;28;20469;-79
2022/12/07 14:28:31;;;;;;;6.40;1.50;;;;;;;5.76;100.00;101425.44;5318261;28;20462;-74
2022/12/07 14:31:09;;;;;;;4.77;2.10;;;;;;;5.76;100.00;101428.88;5317838;28;20092;-75
2022/12/07 14:33:41;;;;;;;8.47;2.13;;;;;;;5.83;100.00;101441.69;5320508;28;20024;-73
2022/12/07 14:36:14;;;;;;;5.73;2.20;;;;;;;5.81;100.00;101434.78;5312812;28;20084;-73
2022/12/07 14:38:45;;;;;;;6.67;2.50;;;;;;;5.73;100.00;101430.69;5314756;28;20485;-74
2022/12/07 14:44:12;;;;;;;7.40;2.60;;;;;;;5.65;100.00;101428.34;5310591;28;20043;-73
2022/12/07 14:46:43;;;;;;;10.93;2.53;;;;;;;5.76;100.00;101433.25;5312355;28;20384;-73
2022/12/07 14:49:15;;;;;;;5.70;2.13;;;;;;;5.66;100.00;101428.28;5315022;28;20030;-77
2022/12/07 14:51:47;;;;;;;5.83;2.53;;;;;;;5.50;100.00;101403.69;5315227;28;20024;-75
2022/12/07 14:54:20;;;;;;;6.30;2.17;;;;;;;5.54;100.00;101416.53;5318144;28;20055;-76
2022/12/07 14:56:51;;;;;;;6.70;2.73;;;;;;;5.64;100.00;101426.63;5317671;28;20036;-74
2022/12/07 14:59:23;;;;;;;5.73;2.17;;;;;;;5.43;100.00;101402.97;5319478;28;20035;-74
2022/12/07 15:01:54;;;;;;;5.90;2.80;;;;;;;5.60;100.00;101409.44;5318122;28;20107;-75
2022/12/07 15:04:26;;;;;;;9.43;3.30;;;;;;;5.52;100.00;101422.66;5318282;28;20104;-75
2022/12/07 15:06:59;;;;;;;5.70;2.93;;;;;;;5.56;100.00;101427.72;5318281;28;20480;-75
2022/12/07 15:09:30;;;;;;;8.80;3.53;;;;;;;5.54;100.00;101411.31;5318047;28;20082;-76
2022/12/07 15:12:03;;;;;;;8.17;3.03;;;;;;;5.49;100.00;101407.16;5317519;28;20055;-74
2022/12/07 15:14:35;;;;;;;4.13;2.00;;;;;;;5.42;100.00;101388.31;5318128;28;20114;-77
2022/12/07 15:17:06;;;;;;;6.90;2.40;;;;;;;5.38;100.00;101402.25;5318798;28;20110;-78
2022/12/07 15:19:37;;;;;;;6.40;2.30;;;;;;;5.47;100.00;101409.81;5321714;28;20027;-75
2022/12/07 15:22:10;;;;;;;5.80;2.50;;;;;;;5.52;100.00;101413.13;5321430;28;20044;-74
2022/12/07 15:24:42;;;;;;;9.67;2.50;;;;;;;5.41;100.00;101397.00;5321214;28;20100;-75
2022/12/07 15:27:13;;;;;;;6.03;2.87;;;;;;;5.45;100.00;101409.00;5319949;28;20031;-79
2022/12/07 15:29:44;;;;;;;5.00;2.33;;;;;;;5.43;100.00;101418.56;5317906;28;20058;-85
2022/12/07 15:32:15;;;;;;;7.17;1.93;;;;;;;5.41;100.00;101410.81;5316797;28;20546;-83
2022/12/07 15:34:47;;;;;;;5.53;1.60;;;;;;;5.36;100.00;101409.28;5314814;28;20099;-74
2022/12/07 15:37:18;;;;;;;5.70;1.93;;;;;;;5.25;100.00;101397.44;5308712;28;20036;-79
2022/12/07 15:39:49;;;;;;;11.77;3.10;;;;;;;5.22;100.00;101410.50;5307318;28;20069;-80
2022/12/07 15:42:20;;;;;;;5.30;2.50;;;;;;;5.20;100.00;101404.50;5303077;28;20039;-80
2022/12/07 15:45:25;;;;;;;6.03;2.47;;;;;;;5.26;100.00;101404.31;5318035;28;20061;-81
2022/12/07 15:47:49;;;;;;;5.23;2.73;;;;;;;5.15;100.00;101409.81;5315943;27;20462;-77
2022/12/07 15:50:21;;;;;;;7.13;2.10;;;;;;;5.29;100.00;101406.84;5319154;27;20034;-82
2022/12/07 15:52:53;;;;;;;7.97;2.33;;;;;;;5.32;100.00;101404.13;5317801;28;20031;-76
2022/12/07 15:55:24;;;;;;;3.63;2.03;;;;;;;5.31;100.00;101399.00;5317516;28;20051;-81
2022/12/07 15:57:55;;;;;;;3.83;2.30;;;;;;;5.34;100.00;101393.72;5317430;28;20099;-81
2022/12/07 16:00:26;;;;;;;4.20;2.30;;;;;;;5.33;100.00;101392.00;5318192;28;20038;-81
2022/12/07 16:02:58;;;;;;;4.23;2.20;;;;;;;5.38;100.00;101389.28;5317205;28;20031;-81
2022/12/07 16:05:29;;;;;;;3.83;2.20;;;;;;;5.32;100.00;101382.53;5308929;28;20027;-77
2022/12/07 16:08:00;;;;;;;4.47;2.20;;;;;;;5.30;100.00;101390.38;5312141;28;20019;-82
2022/12/07 16:10:33;;;;;;;7.17;2.83;;;;;;;5.23;100.00;101383.66;5315758;28;20042;-81
2022/12/07 16:13:04;;;;;;;5.80;2.40;;;;;;;5.16;100.00;101380.38;5317708;28;20019;-78
2022/12/07 16:15:41;;;;;;;3.83;2.30;;;;;;;5.20;100.00;101387.16;5317497;28;20035;-78
2022/12/07 16:18:13;;;;;;;7.80;3.00;;;;;;;5.15;100.00;101391.63;5309417;28;20829;-79
2022/12/07 16:20:48;;;;;;;6.13;2.40;;;;;;;5.19;100.00;101385.47;5313057;28;20027;-81
2022/12/07 16:23:19;;;;;;;6.40;2.40;;;;;;;5.07;100.00;101380.63;5312009;28;20051;-82
2022/12/07 16:25:50;;;;;;;9.57;2.40;;;;;;;5.09;100.00;101378.84;5307112;28;20510;-76
2022/12/07 16:28:21;;;;;;;60.70;20.90;;;;;;;5.15;100.00;101383.03;5303959;28;20028;-77
2022/12/07 16:31:00;;;;;;;8.60;4.10;;;;;;;5.13;100.00;101379.59;5300038;28;20050;-85
2022/12/07 16:33:34;;;;;;;7.60;2.97;;;;;;;5.10;100.00;101372.75;5312668;28;20051;-77
2022/12/07 16:36:07;;;;;;;5.83;2.93;;;;;;;5.01;100.00;101383.41;5317825;28;20106;-83
2022/12/07 16:38:38;;;;;;;9.33;4.00;;;;;;;5.06;100.00;101371.16;5316346;28;20015;-84
2022/12/07 16:41:11;;;;;;;6.30;2.40;;;;;;;5.02;100.00;101378.16;5314359;28;20030;-73
2022/12/07 16:43:42;;;;;;;6.73;2.73;;;;;;;4.91;100.00;101369.81;5304023;28;20635;-76
2022/12/07 16:46:14;;;;;;;5.23;2.10;;;;;;;4.91;100.00;101359.41;5319651;28;20030;-82
2022/12/07 16:48:46;;;;;;;7.87;2.40;;;;;;;5.00;100.00;101368.69;5324715;28;20027;-84
2022/12/07 16:51:17;;;;;;;3.53;2.20;;;;;;;4.99;100.00;101369.59;5318125;28;20032;-84
2022/12/07 16:53:48;;;;;;;4.83;2.83;;;;;;;4.98;100.00;101355.75;5315793;28;20026;-80
2022/12/07 16:56:20;;;;;;;10.90;2.40;;;;;;;4.89;100.00;101356.00;5316632;28;20073;-76
2022/12/07 16:58:52;;;;;;;5.47;2.07;;;;;;;4.73;100.00;101346.06;5321827;28;20016;-79
2022/12/07 17:01:23;;;;;;;5.70;2.17;;;;;;;4.90;100.00;101347.34;5317492;28;20024;-76
2022/12/07 17:03:56;;;;;;;3.67;2.47;;;;;;;5.02;100.00;101359.13;5316154;28;20020;-76
2022/12/07 17:06:28;;;;;;;6.20;2.60;;;;;;;4.96;100.00;101352.34;5317431;28;20027;-78
2022/12/07 17:08:59;;;;;;;5.30;2.87;;;;;;;4.89;100.00;101350.81;5321828;28;20031;-78
2022/12/07 17:11:31;;;;;;;4.87;2.67;;;;;;;4.84;100.00;101349.22;5320012;28;20039;-79
2022/12/07 17:16:52;;;;;;;8.47;2.40;;;;;;;4.81;100.00;101332.88;5315693;28;20032;-76
2022/12/07 17:19:25;;;;;;;7.43;3.23;;;;;;;4.82;100.00;101337.16;5310904;28;20032;-73
2022/12/07 17:21:56;;;;;;;7.10;2.50;;;;;;;4.84;100.00;101341.44;5314603;28;20020;-75
2022/12/07 17:24:27;;;;;;;7.07;2.33;;;;;;;4.74;100.00;101333.94;5313577;27;20043;-79
2022/12/07 17:26:59;;;;;;;9.10;2.73;;;;;;;4.78;100.00;101331.19;5316082;27;20039;-79
2022/12/07 17:29:30;;;;;;;8.50;2.23;;;;;;;4.85;100.00;101329.31;5308469;28;20704;-79
2022/12/07 17:32:01;;;;;;;8.20;2.43;;;;;;;4.73;100.00;101330.47;5312249;28;20031;-78
2022/12/07 17:34:33;;;;;;;8.00;3.07;;;;;;;4.78;100.00;101323.41;5319284;28;20589;-79
2022/12/07 17:37:04;;;;;;;7.37;2.30;;;;;;;4.76;100.00;101317.44;5319926;28;20075;-80
2022/12/07 17:39:35;;;;;;;4.13;1.80;;;;;;;4.78;100.00;101327.78;5319319;28;20047;-77
2022/12/07 17:44:58;;;;;;;8.53;2.00;;;;;;;4.70;100.00;101327.97;5318343;28;20031;-81
2022/12/07 17:47:29;;;;;;;4.63;2.00;;;;;;;4.67;100.00;101328.06;5311903;28;20021;-81
2022/12/07 17:50:01;;;;;;;9.63;2.93;;;;;;;4.63;100.00;101306.53;5308266;28;20015;-76
2022/12/07 17:55:23;;;;;;;6.23;2.57;;;;;;;4.73;100.00;101312.31;5313880;28;20467;-76
2022/12/07 17:57:54;;;;;;;9.10;2.50;;;;;;;4.77;100.00;101323.47;5310040;28;20024;-80
2022/12/07 18:00:26;;;;;;;6.30;2.60;;;;;;;4.60;100.00;101314.41;5306695;28;20100;-79
2022/12/07 18:02:57;;;;;;;7.87;2.27;;;;;;;4.74;100.00;101315.78;5306964;28;20027;-79
2022/12/07 18:05:28;;;;;;;9.97;3.20;;;;;;;4.69;100.00;101308.13;5307962;28;20457;-71
2022/12/07 18:07:59;;;;;;;6.03;2.20;;;;;;;4.73;100.00;101320.09;5308299;28;20117;-74
2022/12/07 18:10:31;;;;;;;8.60;2.77;;;;;;;4.65;100.00;101316.88;5302174;28;20035;-74
2022/12/07 18:15:56;;;;;;;6.53;3.10;;;;;;;4.66;100.00;101295.25;5301672;28;20391;-76
2022/12/07 18:18:27;;;;;;;7.07;2.63;;;;;;;4.70;100.00;101296.84;5308340;28;20019;-74
2022/12/07 18:21:03;;;;;;;3.87;2.10;;;;;;;4.69;100.00;101303.78;5317219;28;20505;-76
2022/12/07 18:23:34;;;;;;;6.40;2.30;;;;;;;4.70;100.00;101304.63;5318217;28;20048;-76
2022/12/07 18:26:06;;;;;;;6.50;3.00;;;;;;;4.68;100.00;101302.06;5319270;28;20031;-77
2022/12/07 18:28:37;;;;;;;5.60;2.10;;;;;;;4.68;100.00;101302.06;5319871;28;20057;-72
2022/12/07 18:31:09;;;;;;;6.47;2.63;;;;;;;4.67;100.00;101294.34;5319423;28;20486;-76
2022/12/07 18:33:42;;;;;;;9.63;3.07;;;;;;;4.64;100.00;101292.69;5318364;28;20031;-73
2022/12/07 18:36:15;;;;;;;5.97;2.30;;;;;;;4.60;100.00;101297.13;5307395;28;20028;-75
2022/12/07 18:38:46;;;;;;;5.40;2.40;;;;;;;4.66;100.00;101285.69;5303254;28;20617;-74
2022/12/07 18:41:19;;;;;;;6.30;2.43;;;;;;;4.58;100.00;101278.13;5317910;28;20027;-75
2022/12/07 18:43:50;;;;;;;4.90;2.33;;;;;;;4.62;100.00;101278.03;5305192;28;20051;-73
2022/12/07 18:46:23;;;;;;;7.57;2.90;;;;;;;4.60;100.00;101281.53;5318782;28;20374;-75
2022/12/07 18:48:56;;;;;;;4.83;2.27;;;;;;;4.43;100.00;101268.19;5317241;28;20098;-75
2022/12/07 18:51:28;;;;;;;5.07;2.73;;;;;;;4.42;100.00;101258.69;5319029;28;20106;-79
2022/12/07 18:54:00;;;;;;;5.77;2.57;;;;;;;4.50;100.00;101277.50;5317768;28;20398;-77
2022/12/07 18:56:31;;;;;;;7.03;3.10;;;;;;;4.41;100.00;101259.59;5319096;28;20458;-77
2022/12/07 19:01:54;;;;;;;5.97;2.80;;;;;;;4.35;100.00;101274.41;5308870;28;20032;-77
2022/12/07 19:04:25;;;;;;;4.97;2.73;;;;;;;4.39;100.00;101277.78;5316077;28;20358;-73
2022/12/07 19:06:56;;;;;;;5.53;2.40;;;;;;;4.35;100.00;101274.41;5315805;28;20027;-82
2022/12/07 19:09:28;;;;;;;10.43;3.43;;;;;;;4.28;100.00;101277.19;5310090;28;20035;-86
2022/12/07 19:12:02;;;;;;;6.67;2.90;;;;;;;4.34;100.00;101269.28;5307932;28;20043;-76
2022/12/07 19:14:36;;;;;;;5.65;2.40;;;;;;;4.30;100.00;101276.28;5308943;28;20019;-76
2022/12/07 19:17:10;;;;;;;;;;;;;;;4.44;100.00;101278.50;5308562;28;20473;-75
2022/12/07 19:19:46;;;;;;;4.57;2.30;;;;;;;4.29;100.00;101274.59;5310580;28;20382;-82
2022/12/07 19:22:20;;;;;;;7.40;3.00;;;;;;;4.32;100.00;101274.50;5310306;28;20458;-79
2022/12/07 19:24:53;;;;;;;12.38;4.10;;;;;;;4.31;100.00;101271.97;5306570;28;20020;-81
2022/12/07 19:27:26;;;;;;;5.17;3.40;;;;;;;4.25;100.00;101254.81;5309102;28;20039;-81
2022/12/07 19:29:58;;;;;;;9.77;3.80;;;;;;;4.33;100.00;101260.63;5308523;28;20031;-75
2022/12/07 19:32:30;;;;;;;10.17;3.73;;;;;;;4.22;100.00;101267.88;5308862;28;20042;-73
2022/12/07 19:35:01;;;;;;;11.00;5.43;;;;;;;4.27;100.00;101257.38;5310309;28;20028;-76
2022/12/07 19:37:33;;;;;;;6.67;3.23;;;;;;;4.21;100.00;101264.41;5306124;28;20099;-72
2022/12/07 19:40:05;;;;;;;6.43;3.53;;;;;;;4.34;100.00;101267.53;5306964;28;20035;-76
2022/12/07 19:42:37;;;;;;;7.90;4.30;;;;;;;4.29;100.00;101266.81;5308144;28;20039;-75
2022/12/07 19:45:08;;;;;;;10.97;3.60;;;;;;;4.30;100.00;101255.53;5309058;28;20031;-74
2022/12/07 19:47:40;;;;;;;9.10;2.60;;;;;;;4.28;100.00;101267.69;5309375;28;20620;-78
2022/12/07 19:50:11;;;;;;;7.27;3.63;;;;;;;4.09;100.00;101239.66;5309168;28;20043;-81
2022/12/07 19:52:42;;;;;;;4.50;2.77;;;;;;;4.21;100.00;101251.44;5307594;28;20048;-73
2022/12/07 19:55:13;;;;;;;5.03;2.63;;;;;;;4.20;100.00;101248.91;5311382;28;20031;-80
2022/12/07 19:57:45;;;;;;;4.83;2.60;;;;;;;4.21;100.00;101258.38;5309429;28;20063;-78
2022/12/07 20:00:16;;;;;;;8.27;2.90;;;;;;;4.11;100.00;101253.44;5310582;28;20613;-81
2022/12/07 20:02:50;;;;;;;7.33;2.83;;;;;;;4.11;100.00;101245.66;5308145;28;20427;-73
2022/12/07 20:05:23;;;;;;;4.45;2.42;;;;;;;4.20;100.00;101243.72;5305484;28;20039;-73
2022/12/07 20:07:55;;;;;;;7.03;2.30;;;;;;;4.17;100.00;101243.81;5306410;28;20023;-76
2022/12/07 20:10:26;;;;;;;7.03;2.30;;;;;;;4.09;100.00;101246.56;5305240;28;20169;-77
2022/12/07 20:15:47;;;;;;;4.67;1.93;;;;;;;4.06;100.00;101242.34;5306469;28;20047;-77
2022/12/07 20:18:18;;;;;;;5.07;1.77;;;;;;;4.06;100.00;101242.34;5306270;28;20036;-74
2022/12/07 20:20:57;;;;;;;5.83;2.33;;;;;;;4.03;100.00;101237.25;5306473;28;20046;-77
2022/12/07 20:23:29;;;;;;;5.87;1.90;;;;;;;4.06;100.00;101237.16;5306710;28;20052;-80
2022/12/07 20:26:02;;;;;;;5.53;2.03;;;;;;;3.98;100.00;101229.56;5305361;28;20066;-85
2022/12/07 20:28:34;;;;;;;5.87;2.30;;;;;;;4.04;100.00;101238.94;5308674;28;20032;-74
2022/12/07 20:31:06;;;;;;;5.30;2.67;;;;;;;4.05;100.00;101229.41;5308602;28;20020;-83
2022/12/07 20:33:37;;;;;;;6.10;2.00;;;;;;;4.09;100.00;101241.41;5306585;28;20112;-72
2022/12/07 20:36:09;;;;;;;6.27;2.03;;;;;;;4.02;100.00;101225.16;5306697;28;20120;-75
2022/12/07 20:38:41;;;;;;;7.40;2.13;;;;;;;4.01;100.00;101222.59;5306094;28;20436;-77
2022/12/07 20:44:04;;;;;;;12.30;3.20;;;;;;;4.10;100.00;101210.25;5307942;28;20027;-72
2022/12/07 20:46:35;;;;;;;4.93;1.90;;;;;;;4.08;100.00;101217.25;5312331;28;20028;-79
2022/12/07 20:49:07;;;;;;;5.93;2.10;;;;;;;4.16;100.00;101218.75;5311030;28;20024;-78
2022/12/07 20:51:39;;;;;;;6.43;2.23;;;;;;;4.07;100.00;101215.50;5310034;28;20035;-72
2022/12/07 20:54:11;;;;;;;5.60;2.40;;;;;;;4.13;100.00;101216.25;5310473;28;20029;-75
2022/12/07 20:56:43;;;;;;;5.53;2.07;;;;;;;4.08;100.00;101214.66;5309607;28;20038;-71
2022/12/07 20:59:14;;;;;;;7.10;2.40;;;;;;;4.04;100.00;101207.81;5310532;28;20044;-71
2022/12/07 21:01:46;;;;;;;4.33;1.93;;;;;;;4.11;100.00;101206.78;5311587;28;20028;-74
2022/12/07 21:04:17;;;;;;;7.70;2.70;;;;;;;4.09;100.00;101208.56;5310705;28;20028;-73
2022/12/07 21:06:48;;;;;;;6.53;2.43;;;;;;;4.08;100.00;101190.44;5309176;28;20032;-73
2022/12/07 21:09:25;;;;;;;4.90;2.40;;;;;;;3.93;100.00;101181.31;5311106;28;20070;-72
2022/12/07 21:11:56;;;;;;;8.50;2.87;;;;;;;4.02;100.00;101196.66;5310220;28;20382;-71
2022/12/07 21:14:28;;;;;;;6.70;2.87;;;;;;;4.01;100.00;101191.50;5311924;28;20099;-70
2022/12/07 21:16:59;;;;;;;5.17;2.10;;;;;;;4.04;100.00;101194.88;5310919;28;20042;-71
2022/12/07 21:19:30;;;;;;;7.57;2.80;;;;;;;4.04;100.00;101194.88;5311291;28;20035;-71
2022/12/07 21:22:03;;;;;;;6.07;2.90;;;;;;;3.94;100.00;101190.81;5307435;28;20036;-71
2022/12/07 21:24:36;;;;;;;5.97;3.47;;;;;;;3.88;100.00;101184.03;5307845;28;20044;-77
2022/12/07 21:27:07;;;;;;;6.77;2.60;;;;;;;3.91;100.00;101194.31;5311336;28;20537;-73
2022/12/07 21:29:39;;;;;;;3.57;2.50;;;;;;;3.87;100.00;101184.94;5311446;28;20038;-72
2022/12/07 21:32:12;;;;;;;7.03;3.50;;;;;;;3.86;100.00;101175.47;5310409;28;20489;-76
2022/12/07 21:34:43;;;;;;;6.83;2.10;;;;;;;3.89;100.00;101180.59;5310775;28;20028;-76
2022/12/07 21:37:15;;;;;;;5.17;2.23;;;;;;;3.87;100.00;101174.59;5310575;28;20023;-73
2022/12/07 21:39:46;;;;;;;10.70;2.07;;;;;;;3.90;100.00;101176.22;5310084;28;20020;-71
2022/12/07 21:42:17;;;;;;;4.20;2.60;;;;;;;3.82;100.00;101172.09;5310621;28;20031;-75
2022/12/07 21:44:49;;;;;;;6.40;1.97;;;;;;;3.77;100.00;101170.53;5311404;28;20028;-73
2022/12/07 21:47:20;;;;;;;3.80;1.87;;;;;;;3.79;100.00;101171.34;5310407;28;20129;-81
2022/12/07 21:49:51;;;;;;;6.23;2.63;;;;;;;3.78;100.00;101165.31;5309425;28;20024;-73
2022/12/07 21:52:22;;;;;;;4.93;2.47;;;;;;;3.71;100.00;101164.63;5309658;28;20027;-80
2022/12/07 21:54:54;;;;;;;7.70;3.23;;;;;;;3.82;100.00;101174.69;5308553;28;20072;-76
2022/12/07 21:57:25;;;;;;;7.27;3.10;;;;;;;3.76;100.00;101169.69;5309672;28;20039;-74
2022/12/07 21:59:56;;;;;;;5.23;2.10;;;;;;;3.73;100.00;101173.22;5310604;28;20043;-82
2022/12/07 22:02:27;;;;;;;6.70;2.37;;;;;;;3.68;100.00;101175.06;5306099;28;20039;-78
2022/12/07 22:04:59;;;;;;;4.33;2.07;;;;;;;3.60;100.00;101151.94;5310791;28;20027;-76
2022/12/07 22:07:30;;;;;;;4.30;2.53;;;;;;;3.66;100.00;101156.13;5314635;28;20024;-76
2022/12/07 22:10:02;;;;;;;5.83;2.93;;;;;;;3.71;100.00;101161.16;5308792;28;20112;-74
2022/12/07 22:12:33;;;;;;;5.27;3.13;;;;;;;3.75;100.00;101161.03;5311582;28;20027;-74
2022/12/07 22:15:05;;;;;;;6.33;3.20;;;;;;;3.76;100.00;101164.50;5313274;28;20683;-80
